Time;durP1;ratioP1;P1;durP2;ratioP2;P2;SDS_P1;SDS_P2;PMS_P1;PMS_P2;Temp;Humidity;BMP_temperature;BMP_pressure;BME280_temperature;BME280_humidity;BME280_pressure;Samples;Min_cycle;Max_cycle;Signal;HPM_P1;HPM_P2
2022/09/26 00:02:17;;;;;;;2.60;1.13;;;;;;;10.12;87.97;99600.31;4993000;28;20130;-81
2022/09/26 00:04:42;;;;;;;3.23;1.37;;;;;;;10.13;87.82;99603.81;4975338;28;20026;-81
2022/09/26 00:07:08;;;;;;;8.40;1.60;;;;;;;10.12;87.95;99596.78;4992523;28;20026;-80
2022/09/26 00:09:33;;;;;;;3.77;1.33;;;;;;;10.11;88.15;99593.28;4992653;28;20285;-80
2022/09/26 00:12:00;;;;;;;3.30;1.40;;;;;;;10.06;88.38;99587.28;4974979;28;20034;-81
2022/09/26 00:14:27;;;;;;;4.65;1.60;;;;;;;10.03;88.51;99582.53;4992824;28;20463;-80
2022/09/26 00:16:53;;;;;;;3.97;1.83;;;;;;;10.00;88.71;99575.06;4993623;28;20029;-81
2022/09/26 00:19:19;;;;;;;4.38;1.70;;;;;;;9.98;88.82;99572.69;4992983;28;20038;-80
2022/09/26 00:21:45;;;;;;;;;;;;;;;9.95;88.85;99559.78;4993212;28;20034;-81
2022/09/26 00:24:10;;;;;;;6.43;2.33;;;;;;;10.09;88.28;99545.81;4992621;28;20367;-80
2022/09/26 00:26:37;;;;;;;3.95;1.92;;;;;;;10.01;88.54;99555.66;4975180;28;20026;-81
2022/09/26 00:29:08;;;;;;;4.63;2.33;;;;;;;9.98;89.12;99539.25;4992579;28;20038;-80
2022/09/26 00:31:37;;;;;;;4.40;1.92;;;;;;;9.95;89.20;99530.66;4972772;28;20072;-80
2022/09/26 00:34:03;;;;;;;4.75;1.73;;;;;;;9.94;89.08;99531.78;4958969;28;20057;-80
2022/09/26 00:36:28;;;;;;;4.45;2.00;;;;;;;10.02;88.97;99534.69;4975220;28;20483;-79
2022/09/26 00:38:54;;;;;;;4.82;2.00;;;;;;;9.98;89.24;99525.66;4975233;28;20109;-80
2022/09/26 00:41:21;;;;;;;3.67;1.57;;;;;;;9.97;89.21;99521.34;4992312;28;20064;-80
2022/09/26 00:43:55;;;;;;;4.97;2.15;;;;;;;9.95;89.20;99514.31;4992774;28;20326;-81
2022/09/26 00:46:31;;;;;;;5.18;2.03;;;;;;;9.94;89.30;99515.47;4992354;28;20101;-79
2022/09/26 00:49:32;;;;;;;4.63;1.60;;;;;;;9.97;89.13;99515.91;4992505;28;20125;-80
2022/09/26 00:52:11;;;;;;;4.60;1.83;;;;;;;9.95;89.18;99514.31;4992632;28;20110;-80
2022/09/26 00:54:41;;;;;;;4.95;2.03;;;;;;;9.94;89.30;99507.31;4992731;28;20026;-81
2022/09/26 00:57:14;;;;;;;3.75;1.63;;;;;;;9.99;89.04;99506.25;4991098;28;20471;-80
2022/09/26 00:59:47;;;;;;;3.83;1.83;;;;;;;9.99;89.37;99498.09;4974790;28;20073;-81
2022/09/26 01:02:15;;;;;;;4.60;1.85;;;;;;;10.01;89.38;99504.00;4975861;28;20031;-83
2022/09/26 01:04:44;;;;;;;4.18;1.73;;;;;;;9.99;89.28;99489.94;4974852;28;20032;-82
2022/09/26 01:07:15;;;;;;;4.20;1.60;;;;;;;9.96;89.26;99487.94;4992427;28;20045;-84
2022/09/26 01:09:41;;;;;;;7.45;1.80;;;;;;;9.97;89.49;99494.16;4992326;28;20030;-83
2022/09/26 01:12:07;;;;;;;6.68;1.92;;;;;;;9.91;89.49;99486.25;4992273;28;20077;-82
2022/09/26 01:14:36;;;;;;;5.00;1.85;;;;;;;9.95;89.96;99483.63;4992540;28;20133;-83
2022/09/26 01:17:02;;;;;;;3.83;1.40;;;;;;;9.95;89.58;99480.91;4991934;28;20645;-82
2022/09/26 01:19:37;;;;;;;5.10;2.03;;;;;;;9.94;89.75;99473.88;4959088;28;20035;-83
2022/09/26 01:22:58;;;;;;;6.72;1.70;;;;;;;9.92;89.75;99471.50;4992497;28;20019;-83
2022/09/26 01:25:45;;;;;;;3.63;1.73;;;;;;;9.91;90.09;99459.06;4943214;28;20057;-83
2022/09/26 01:28:29;;;;;;;4.57;1.92;;;;;;;9.91;90.01;99464.50;4991974;28;20053;-83
2022/09/26 01:31:32;;;;;;;5.72;1.90;;;;;;;9.89;90.22;99453.13;4993355;28;20030;-84
2022/09/26 01:34:13;;;;;;;4.25;1.30;;;;;;;9.88;90.37;99454.28;4995684;28;20106;-83
2022/09/26 01:36:49;;;;;;;4.57;2.08;;;;;;;9.85;90.61;99449.53;4978179;28;20034;-83
2022/09/26 01:39:35;;;;;;;;;;;;;;;9.82;90.83;99444.81;4996256;28;20328;-82
2022/09/26 01:42:09;;;;;;;4.88;1.67;;;;;;;9.84;90.86;99439.00;4974182;28;19922;-83
2022/09/26 01:44:49;;;;;;;4.53;1.73;;;;;;;9.82;90.93;99439.38;4995522;28;20529;-83
2022/09/26 01:47:30;;;;;;;4.43;1.60;;;;;;;9.87;91.05;99441.81;4994659;28;20057;-83
2022/09/26 01:50:07;;;;;;;4.53;1.83;;;;;;;9.82;91.11;99439.38;4996205;28;20034;-82
2022/09/26 01:52:49;;;;;;;4.75;1.80;;;;;;;9.77;91.51;99436.09;4996261;28;20022;-83
2022/09/26 01:55:20;;;;;;;4.32;1.83;;;;;;;9.78;91.55;99438.47;4996294;28;20081;-84
2022/09/26 01:57:49;;;;;;;3.90;1.75;;;;;;;9.75;91.61;99439.16;4978398;28;20032;-85
2022/09/26 02:00:14;;;;;;;5.38;1.98;;;;;;;9.72;92.11;99439.84;4995380;28;20022;-83
2022/09/26 02:02:43;;;;;;;5.68;2.53;;;;;;;9.71;92.25;99432.03;4977915;28;20022;-83
2022/09/26 02:05:17;;;;;;;6.28;2.08;;;;;;;9.71;92.45;99432.03;4977945;28;20509;-84
2022/09/26 02:07:51;;;;;;;6.97;2.88;;;;;;;9.68;92.72;99419.13;4995440;28;20121;-82
2022/09/26 02:10:31;;;;;;;5.55;2.20;;;;;;;9.65;93.26;99415.19;4978256;28;20037;-83
2022/09/26 02:13:07;;;;;;;9.57;2.35;;;;;;;9.67;93.12;99421.06;4995451;28;20026;-81
2022/09/26 02:15:35;;;;;;;6.95;2.60;;;;;;;9.69;93.36;99413.34;4995196;28;20022;-83
2022/09/26 02:18:29;;;;;;;5.45;2.40;;;;;;;9.70;93.54;99405.97;4994911;28;20062;-82
2022/09/26 02:21:02;;;;;;;6.20;2.60;;;;;;;9.71;93.63;99399.41;4990370;28;20037;-82
2022/09/26 02:23:27;;;;;;;7.47;2.50;;;;;;;9.73;93.46;99400.63;4994757;28;20029;-83
2022/09/26 02:25:53;;;;;;;9.80;3.17;;;;;;;9.76;93.45;99382.88;4976929;28;20026;-82
2022/09/26 02:28:19;;;;;;;5.07;2.30;;;;;;;9.75;93.43;99395.69;4976883;28;20034;-82
2022/09/26 02:30:46;;;;;;;8.00;2.85;;;;;;;9.74;93.81;99388.66;4994670;28;20109;-80
2022/09/26 02:33:13;;;;;;;7.53;3.10;;;;;;;9.77;93.39;99376.28;4977183;28;20068;-83
2022/09/26 02:35:53;;;;;;;7.95;2.70;;;;;;;9.77;93.51;99368.13;4976860;28;20027;-83
2022/09/26 02:38:23;;;;;;;8.88;2.90;;;;;;;9.86;93.14;99364.09;4994934;28;20022;-83
2022/09/26 02:40:55;;;;;;;6.80;3.17;;;;;;;9.74;93.77;99358.75;4977591;28;20108;-85
2022/09/26 02:43:33;;;;;;;7.30;2.83;;;;;;;9.71;94.26;99355.91;4993392;28;20026;-84
2022/09/26 02:46:07;;;;;;;8.13;2.70;;;;;;;9.67;94.41;99350.38;4994418;28;20022;-81
2022/09/26 02:48:51;;;;;;;7.35;2.70;;;;;;;9.68;94.31;99335.66;4994311;28;20022;-82
2022/09/26 02:51:55;;;;;;;10.05;3.25;;;;;;;9.65;94.86;99341.78;4994329;28;20026;-83
2022/09/26 02:54:31;;;;;;;8.02;3.10;;;;;;;9.65;94.85;99336.34;4994366;28;20030;-83
2022/09/26 02:57:24;;;;;;;6.40;3.22;;;;;;;9.63;94.92;99325.84;4994315;28;20032;-82
2022/09/26 03:00:02;;;;;;;6.90;3.35;;;;;;;9.63;95.14;99323.13;4976539;28;20046;-82
2022/09/26 03:02:37;;;;;;;6.15;2.95;;;;;;;9.63;95.41;99317.69;4994026;28;20030;-82
2022/09/26 03:05:17;;;;;;;8.15;3.05;;;;;;;9.60;95.47;99306.72;4994137;28;20387;-83
2022/09/26 03:07:52;;;;;;;8.82;3.95;;;;;;;9.61;95.50;99308.28;4994198;28;20026;-84
2022/09/26 03:10:19;;;;;;;7.30;3.33;;;;;;;9.63;95.69;99308.72;4994145;28;20034;-83
2022/09/26 03:12:44;;;;;;;7.13;3.42;;;;;;;9.63;95.70;99300.56;4993985;28;20101;-83
2022/09/26 03:15:12;;;;;;;6.75;3.67;;;;;;;9.59;95.71;99292.34;4993748;28;20102;-83
2022/09/26 03:17:42;;;;;;;6.20;2.92;;;;;;;9.58;95.89;99282.59;4993785;28;20018;-82
2022/09/26 03:20:14;;;;;;;8.63;3.00;;;;;;;9.60;95.78;99280.31;4993638;28;20105;-83
2022/09/26 03:22:41;;;;;;;8.23;3.40;;;;;;;9.59;95.89;99277.97;4976191;28;20034;-82
2022/09/26 03:25:10;;;;;;;6.72;3.03;;;;;;;9.61;96.04;99278.41;4976412;28;20030;-83
2022/09/26 03:27:42;;;;;;;7.70;3.13;;;;;;;9.60;96.16;99268.66;4993390;28;20036;-85
2022/09/26 03:30:09;;;;;;;7.13;3.17;;;;;;;9.61;96.04;99271.03;4976146;28;20037;-83
2022/09/26 03:32:36;;;;;;;7.35;3.60;;;;;;;9.61;96.10;99264.81;4993869;28;20022;-84
2022/09/26 03:35:02;;;;;;;8.35;3.58;;;;;;;9.64;96.04;99251.31;4976218;28;20557;-82
2022/09/26 03:37:28;;;;;;;7.65;3.30;;;;;;;9.67;95.84;99249.03;4976169;28;20547;-83
2022/09/26 03:39:53;;;;;;;5.85;3.22;;;;;;;9.68;96.13;99243.22;4993362;28;20050;-83
2022/09/26 03:42:19;;;;;;;6.73;3.20;;;;;;;9.69;95.98;99241.31;4975685;28;20057;-80
2022/09/26 03:44:47;;;;;;;6.22;3.05;;;;;;;9.68;95.92;99239.72;4976030;28;20293;-79
2022/09/26 03:47:14;;;;;;;6.82;3.47;;;;;;;9.66;96.10;99240.09;4975720;28;20132;-80
2022/09/26 03:49:41;;;;;;;8.25;3.13;;;;;;;9.70;95.98;99235.53;4993252;28;20057;-81
2022/09/26 03:52:09;;;;;;;8.70;3.50;;;;;;;9.70;96.28;99240.16;4975806;28;20031;-82
2022/09/26 03:54:35;;;;;;;7.25;3.33;;;;;;;9.65;96.27;99227.63;4975179;28;20026;-79
2022/09/26 03:57:00;;;;;;;7.33;3.63;;;;;;;9.66;96.30;99229.22;4993024;28;20015;-82
2022/09/26 03:59:26;;;;;;;7.13;3.10;;;;;;;9.64;96.43;99223.34;4992943;28;20057;-82
2022/09/26 04:01:51;;;;;;;7.67;3.63;;;;;;;9.67;96.53;99224.56;4975582;28;20404;-82
2022/09/26 04:04:16;;;;;;;6.53;3.63;;;;;;;9.65;96.48;99219.47;4992725;28;20348;-81
2022/09/26 04:06:43;;;;;;;12.00;4.03;;;;;;;9.64;96.61;99215.19;4975673;28;20124;-82
2022/09/26 04:09:10;;;;;;;8.02;3.63;;;;;;;9.62;97.02;99209.31;4975713;28;20033;-82
2022/09/26 04:11:37;;;;;;;8.40;3.45;;;;;;;9.62;96.96;99204.66;4975785;28;20032;-80
2022/09/26 04:14:04;;;;;;;8.38;3.50;;;;;;;9.58;97.23;99197.56;4976125;28;20018;-82
2022/09/26 04:16:30;;;;;;;8.02;3.60;;;;;;;9.59;97.16;99193.72;4976653;28;20117;-81
2022/09/26 04:18:56;;;;;;;7.88;3.50;;;;;;;9.58;97.37;99192.13;4992930;28;20038;-81
2022/09/26 04:21:22;;;;;;;;;;;;;;;9.58;97.39;99192.91;4993155;28;20044;-82
2022/09/26 04:23:49;;;;;;;6.93;3.67;;;;;;;9.57;97.38;99180.47;4959209;28;20009;-82
2022/09/26 04:26:18;;;;;;;9.50;3.85;;;;;;;9.56;97.72;99170.72;4992952;28;20109;-81
2022/09/26 04:28:45;;;;;;;8.10;3.95;;;;;;;9.63;97.72;99181.00;4991542;28;20093;-81
2022/09/26 04:31:13;;;;;;;8.88;3.95;;;;;;;9.59;97.50;99170.03;4975386;28;20045;-83
2022/09/26 04:33:39;;;;;;;7.80;3.83;;;;;;;9.57;97.61;99163.34;4991671;28;20493;-82
2022/09/26 04:36:09;;;;;;;8.82;3.95;;;;;;;9.53;97.87;99163.25;4992668;28;20046;-82
2022/09/26 04:38:35;;;;;;;9.32;4.32;;;;;;;9.55;97.91;99163.69;4993952;28;20031;-81
2022/09/26 04:41:18;;;;;;;8.90;4.05;;;;;;;9.51;97.90;99159.31;4993594;28;20069;-81
2022/09/26 04:43:44;;;;;;;13.30;4.68;;;;;;;9.53;98.10;99157.03;4994304;28;20050;-81
2022/09/26 04:46:22;;;;;;;10.02;4.35;;;;;;;9.54;97.96;99150.47;4976536;28;20494;-81
2022/09/26 04:48:48;;;;;;;10.82;4.10;;;;;;;9.54;97.75;99139.59;4976194;28;20030;-81
2022/09/26 04:51:18;;;;;;;9.98;3.38;;;;;;;9.53;97.74;99143.44;4975935;28;20422;-81
2022/09/26 04:53:44;;;;;;;9.20;3.65;;;;;;;9.55;97.46;99141.97;4993080;28;20030;-82
2022/09/26 04:56:11;;;;;;;8.23;4.25;;;;;;;9.57;97.47;99136.16;4975723;28;20034;-81
2022/09/26 04:58:38;;;;;;;10.38;3.58;;;;;;;9.58;97.51;99132.34;4992564;28;20065;-81
2022/09/26 05:01:06;;;;;;;8.80;3.70;;;;;;;9.54;97.48;99129.50;4993841;28;20432;-81
2022/09/26 05:03:34;;;;;;;8.30;3.83;;;;;;;9.53;97.39;99125.22;4993683;28;20027;-81
2022/09/26 05:05:59;;;;;;;7.32;3.85;;;;;;;9.59;97.69;99125.75;4995445;28;20030;-82
2022/09/26 05:08:25;;;;;;;6.85;3.67;;;;;;;9.64;97.00;99122.78;4979813;28;20398;-81
2022/09/26 05:10:53;;;;;;;8.07;3.72;;;;;;;9.60;96.88;99111.81;4997376;28;20030;-82
2022/09/26 05:13:20;;;;;;;13.57;4.30;;;;;;;9.54;97.42;99107.78;4979755;28;20027;-83
2022/09/26 05:15:47;;;;;;;8.75;3.83;;;;;;;9.51;97.23;99105.75;4997225;28;20042;-81
2022/09/26 05:18:15;;;;;;;8.07;3.58;;;;;;;9.50;97.62;99097.97;4997338;28;20439;-82
2022/09/26 05:20:47;;;;;;;7.10;3.40;;;;;;;9.53;97.29;99099.97;4996519;28;20041;-81
2022/09/26 05:26:18;;;;;;;8.60;3.75;;;;;;;9.50;97.40;99097.97;4996661;28;20023;-81
2022/09/26 05:26:24;;;;;;;8.45;3.45;;;;;;;9.43;96.95;99085.00;4995722;28;20065;-82
2022/09/26 05:28:54;;;;;;;8.38;3.53;;;;;;;9.47;97.18;99091.31;4995019;28;20038;-81
2022/09/26 05:31:22;;;;;;;6.97;3.05;;;;;;;9.44;97.12;99081.16;4995773;28;20026;-81
2022/09/26 05:33:50;;;;;;;8.48;3.83;;;;;;;9.42;97.03;99082.66;4962244;28;20089;-81
2022/09/26 05:36:19;;;;;;;8.10;3.20;;;;;;;9.40;97.23;99084.91;4995727;28;20050;-81
2022/09/26 05:38:45;;;;;;;7.82;3.42;;;;;;;9.61;97.18;99080.78;4995475;28;20155;-83
2022/09/26 05:41:12;;;;;;;10.43;3.63;;;;;;;9.48;96.43;99073.88;4995023;28;20050;-80
2022/09/26 05:43:38;;;;;;;8.43;3.58;;;;;;;9.48;96.60;99086.66;4995202;28;20084;-79
2022/09/26 05:46:06;;;;;;;8.82;3.80;;;;;;;9.58;96.46;99072.56;4995108;28;20411;-80
2022/09/26 05:48:34;;;;;;;6.72;3.13;;;;;;;9.61;95.63;99080.00;4995940;28;20038;-81
2022/09/26 05:51:08;;;;;;;7.90;3.05;;;;;;;9.58;95.29;99069.84;4995698;28;20042;-79
2022/09/26 05:53:38;;;;;;;6.97;3.15;;;;;;;9.58;95.00;99067.13;4996715;28;20117;-80
2022/09/26 05:56:05;;;;;;;7.13;2.97;;;;;;;9.61;94.99;99058.25;4995441;28;20034;-80
2022/09/26 05:58:31;;;;;;;7.97;2.95;;;;;;;9.60;94.54;99072.97;4977863;28;20045;-77
2022/09/26 06:01:02;;;;;;;6.03;2.80;;;;;;;9.65;94.26;99057.19;4995113;28;20065;-79
2022/09/26 06:03:27;;;;;;;7.68;3.20;;;;;;;9.69;93.71;99051.03;4977419;28;20050;-79
2022/09/26 06:05:53;;;;;;;8.02;3.05;;;;;;;9.73;93.77;99065.47;4994680;28;20041;-80
2022/09/26 06:08:18;;;;;;;8.85;3.15;;;;;;;9.76;92.98;99054.72;4977251;28;20034;-81
2022/09/26 06:10:44;;;;;;;6.77;3.37;;;;;;;9.77;93.06;99045.41;4977167;28;20127;-78
2022/09/26 06:13:09;;;;;;;9.20;2.75;;;;;;;9.77;92.81;99041.91;4994842;28;20339;-79
2022/09/26 06:15:34;;;;;;;6.97;2.80;;;;;;;9.80;92.60;99043.91;4977329;28;20030;-76
2022/09/26 06:18:03;;;;;;;8.10;3.10;;;;;;;9.80;92.13;99036.53;4994093;28;20260;-79
2022/09/26 06:20:33;;;;;;;6.45;2.78;;;;;;;9.80;91.57;99033.81;4994679;28;20792;-78
2022/09/26 06:22:59;;;;;;;6.85;2.50;;;;;;;9.83;91.82;99030.38;4977092;28;20031;-80
2022/09/26 06:25:25;;;;;;;7.35;2.80;;;;;;;9.94;91.20;99028.69;4977187;28;20036;-83
2022/09/26 06:27:56;;;;;;;4.70;2.47;;;;;;;9.91;91.38;99029.41;4994129;28;20113;-80
2022/09/26 06:30:23;;;;;;;7.18;2.80;;;;;;;9.85;91.02;99021.88;4994546;28;20049;-80
2022/09/26 06:32:52;;;;;;;10.80;2.50;;;;;;;9.93;91.23;99015.47;4994337;28;20487;-80
2022/09/26 06:35:20;;;;;;;6.25;2.65;;;;;;;9.86;91.39;99005.19;4976971;28;20026;-81
2022/09/26 06:37:46;;;;;;;7.10;3.00;;;;;;;9.88;91.00;99015.72;4994597;28;20105;-81
2022/09/26 06:40:12;;;;;;;6.32;2.35;;;;;;;9.87;91.02;99006.78;4994352;28;20033;-81
2022/09/26 06:42:38;;;;;;;4.85;2.30;;;;;;;9.87;90.91;98998.63;4994071;28;20470;-81
2022/09/26 06:45:09;;;;;;;6.22;2.60;;;;;;;9.90;90.24;98988.97;4994814;28;20342;-82
2022/09/26 06:47:35;;;;;;;6.00;2.25;;;;;;;9.93;90.48;98985.53;4994515;28;20164;-79
2022/09/26 06:50:01;;;;;;;6.40;2.60;;;;;;;9.92;89.91;98982.03;4994205;28;20482;-82
2022/09/26 06:52:28;;;;;;;5.97;2.25;;;;;;;9.95;89.93;98986.75;4993908;28;20034;-82
2022/09/26 06:54:54;;;;;;;6.35;2.63;;;;;;;9.95;89.79;98967.72;4976617;28;20042;-80
2022/09/26 06:57:20;;;;;;;7.20;3.15;;;;;;;9.97;89.97;98975.53;4993784;28;20026;-80
2022/09/26 06:59:46;;;;;;;6.30;2.88;;;;;;;9.98;89.84;98968.94;4993377;28;20065;-83
2022/09/26 07:02:12;;;;;;;7.75;2.67;;;;;;;10.00;89.91;98971.28;4976371;28;20026;-82
2022/09/26 07:04:37;;;;;;;6.47;2.13;;;;;;;10.06;89.74;98962.47;4993818;28;20501;-82
2022/09/26 07:07:03;;;;;;;5.43;2.40;;;;;;;10.02;89.66;98966.28;4975986;28;20060;-83
2022/09/26 07:09:28;;;;;;;9.05;2.88;;;;;;;9.97;89.86;98958.41;4976235;28;20297;-81
2022/09/26 07:11:54;;;;;;;4.20;2.05;;;;;;;9.94;90.15;98960.72;4975945;28;20038;-80
2022/09/26 07:14:19;;;;;;;5.25;2.53;;;;;;;9.93;90.63;98956.41;4993329;28;20022;-80
2022/09/26 07:16:49;;;;;;;5.50;2.28;;;;;;;9.90;90.84;98954.41;4993280;28;20057;-80
2022/09/26 07:19:15;;;;;;;6.57;2.17;;;;;;;9.99;91.12;98953.41;4945077;28;20038;-81
2022/09/26 07:21:41;;;;;;;5.18;2.50;;;;;;;9.92;91.50;98949.41;4993548;28;20081;-79
2022/09/26 07:24:07;;;;;;;4.90;2.58;;;;;;;9.92;92.56;98949.41;4993464;28;20091;-80
2022/09/26 07:26:33;;;;;;;6.43;2.65;;;;;;;9.88;92.06;98948.53;4993610;28;20061;-80
2022/09/26 07:28:59;;;;;;;5.03;2.55;;;;;;;9.87;92.65;98941.53;4992921;28;20041;-80
2022/09/26 07:31:25;;;;;;;5.18;2.10;;;;;;;9.91;93.05;98941.63;4993910;28;20026;-83
2022/09/26 07:33:51;;;;;;;6.60;2.40;;;;;;;9.88;93.04;98940.38;4992773;28;20038;-82
2022/09/26 07:36:17;;;;;;;5.13;2.33;;;;;;;9.89;93.02;98928.34;4993353;28;20120;-81
2022/09/26 07:38:47;;;;;;;7.55;2.22;;;;;;;9.91;93.18;98931.53;4994350;28;20392;-82
2022/09/26 07:41:12;;;;;;;5.72;2.63;;;;;;;9.95;92.52;98926.94;4977188;28;20061;-80
2022/09/26 07:43:38;;;;;;;6.18;1.98;;;;;;;10.07;92.06;98922.47;4977124;28;20450;-83
2022/09/26 07:51:32;;;;;;;6.22;2.40;;;;;;;9.90;93.02;98913.63;4995016;28;20599;-81
2022/09/26 07:53:57;;;;;;;7.93;3.20;;;;;;;9.85;93.35;98911.19;4995153;28;20041;-81
2022/09/26 07:56:33;;;;;;;6.10;2.78;;;;;;;9.79;94.14;98909.91;4993705;28;20026;-79
2022/09/26 07:59:02;;;;;;;8.48;2.35;;;;;;;9.82;94.33;98906.47;4993520;28;20117;-84
2022/09/26 08:01:28;;;;;;;5.50;1.92;;;;;;;9.81;94.29;98909.56;4993335;28;20034;-80
2022/09/26 08:03:56;;;;;;;5.80;2.50;;;;;;;9.79;94.93;98909.91;4976211;28;20022;-81
2022/09/26 08:06:24;;;;;;;11.75;2.92;;;;;;;9.79;95.14;98906.41;4977165;28;20125;-81
2022/09/26 08:08:57;;;;;;;5.75;2.95;;;;;;;9.78;95.55;98902.91;4993464;28;20023;-81
2022/09/26 08:11:23;;;;;;;5.30;2.45;;;;;;;9.78;95.62;98916.50;4993692;28;20029;-81
2022/09/26 08:13:49;;;;;;;9.05;3.20;;;;;;;9.77;95.88;98908.72;4976024;28;20018;-79
2022/09/26 08:16:21;;;;;;;6.68;2.58;;;;;;;9.78;96.57;98899.41;4975902;28;20026;-82
2022/09/26 08:18:52;;;;;;;6.80;2.35;;;;;;;9.78;95.81;98905.63;4975526;28;20076;-82
2022/09/26 08:21:18;;;;;;;7.00;2.72;;;;;;;9.79;96.46;98904.47;4977338;28;20026;-81
2022/09/26 08:23:45;;;;;;;;;;;;;;;9.82;96.72;98901.03;4994610;28;20034;-83
2022/09/26 08:26:11;;;;;;;8.50;2.17;;;;;;;9.80;97.12;98895.19;4994733;28;19996;-81
2022/09/26 08:28:37;;;;;;;5.18;2.38;;;;;;;9.78;97.10;98899.41;4995268;28;20023;-84
2022/09/26 08:31:04;;;;;;;7.97;4.03;;;;;;;9.81;97.58;98910.34;4977414;28;20022;-78
2022/09/26 08:33:34;;;;;;;4.65;2.08;;;;;;;9.79;96.83;98892.81;4993727;28;20125;-82
2022/09/26 08:36:14;;;;;;;8.18;2.03;;;;;;;9.75;96.99;98895.47;4977837;28;20026;-82
2022/09/26 08:38:39;;;;;;;4.45;1.98;;;;;;;9.76;97.77;98891.59;4995046;28;20161;-82
2022/09/26 08:41:20;;;;;;;4.78;2.00;;;;;;;9.68;97.32;98889.09;4979135;28;20483;-84
2022/09/26 08:43:55;;;;;;;4.38;1.50;;;;;;;9.69;98.09;98888.72;4981075;28;20035;-83
2022/09/26 08:47:01;;;;;;;4.75;1.92;;;;;;;9.62;98.88;98894.03;4999896;28;20045;-84
2022/09/26 08:49:54;;;;;;;5.60;2.60;;;;;;;9.61;99.13;98889.75;4999593;28;20042;-82
2022/09/26 08:52:26;;;;;;;5.88;2.10;;;;;;;9.58;98.87;98885.03;4981242;28;20102;-81
2022/09/26 08:54:55;;;;;;;4.10;1.67;;;;;;;9.53;99.61;98888.81;4980825;28;20030;-78
2022/09/26 08:57:40;;;;;;;4.88;2.13;;;;;;;9.54;99.60;98878.72;4996980;28;20031;-80
2022/09/26 09:00:17;;;;;;;8.88;2.85;;;;;;;9.46;100.00;98875.09;4978860;28;20058;-79
2022/09/26 09:03:15;;;;;;;5.13;1.92;;;;;;;9.49;100.00;98865.44;4978543;28;20058;-82
2022/09/26 09:05:50;;;;;;;8.68;1.80;;;;;;;9.42;100.00;98870.72;4979647;28;20061;-79
2022/09/26 09:08:21;;;;;;;4.97;2.20;;;;;;;9.39;100.00;98872.19;4996715;28;20051;-82
2022/09/26 09:10:56;;;;;;;4.80;1.98;;;;;;;9.24;100.00;98873.06;4979370;28;20034;-79
2022/09/26 09:13:47;;;;;;;4.90;2.20;;;;;;;9.19;100.00;98868.69;4996134;28;20088;-80
2022/09/26 09:16:30;;;;;;;5.20;1.65;;;;;;;9.19;100.00;98867.91;4995696;28;20022;-79
2022/09/26 09:18:56;;;;;;;4.13;1.80;;;;;;;9.16;100.00;98868.63;4996645;28;20184;-88
2022/09/26 09:21:33;;;;;;;6.13;2.10;;;;;;;9.11;100.00;98864.25;4978302;28;20065;-85
2022/09/26 09:24:15;;;;;;;6.28;2.00;;;;;;;9.15;100.00;98856.97;4978791;28;20026;-85
2022/09/26 09:27:04;;;;;;;4.47;1.90;;;;;;;9.15;100.00;98848.03;4980282;28;20117;-86
2022/09/26 09:29:37;;;;;;;5.60;1.92;;;;;;;9.07;100.00;98852.53;4997408;28;20058;-81
2022/09/26 09:32:03;;;;;;;4.30;1.67;;;;;;;9.08;100.00;98856.81;4996267;28;20034;-79
2022/09/26 09:34:37;;;;;;;6.95;2.33;;;;;;;9.04;100.00;98836.94;4994912;28;20019;-82
2022/09/26 09:37:10;;;;;;;31.50;10.68;;;;;;;9.16;100.00;98831.38;4997779;28;20121;-89
2022/09/26 09:39:39;;;;;;;6.22;1.95;;;;;;;9.10;100.00;98835.53;4996145;28;20039;-84
2022/09/26 09:42:24;;;;;;;4.88;2.05;;;;;;;9.06;100.00;98821.06;4978593;28;20484;-84
2022/09/26 09:45:03;;;;;;;6.82;2.15;;;;;;;9.16;100.00;98833.31;4979301;28;20026;-86
2022/09/26 09:47:28;;;;;;;5.38;2.55;;;;;;;9.13;100.00;98825.88;4997588;28;20027;-85
2022/09/26 09:49:55;;;;;;;5.78;2.13;;;;;;;9.23;100.00;98825.28;4997391;28;20022;-83
2022/09/26 09:52:44;;;;;;;6.45;2.50;;;;;;;9.23;100.00;98817.16;4979099;28;20479;-88
2022/09/26 09:55:30;;;;;;;9.00;2.15;;;;;;;9.21;100.00;98806.66;4997357;28;20029;-81
2022/09/26 09:58:24;;;;;;;7.10;1.73;;;;;;;9.30;100.00;98798.28;4979904;28;20037;-83
2022/09/26 10:01:12;;;;;;;7.22;1.75;;;;;;;9.26;100.00;98781.94;4978356;28;20113;-80
2022/09/26 10:03:49;;;;;;;4.30;1.70;;;;;;;9.31;100.00;98786.28;4978413;28;20157;-80
2022/09/26 10:06:14;;;;;;;4.30;1.92;;;;;;;9.32;100.00;98780.50;4978220;28;20026;-83
2022/09/26 10:08:41;;;;;;;7.78;2.28;;;;;;;9.49;100.00;98779.25;4996546;28;20395;-86
2022/09/26 10:11:27;;;;;;;9.98;3.20;;;;;;;9.50;100.00;98780.06;4978758;28;20078;-81
2022/09/26 10:13:55;;;;;;;5.85;1.95;;;;;;;9.46;100.00;98769.13;4995836;28;20044;-83
2022/09/26 10:16:22;;;;;;;5.80;2.05;;;;;;;9.42;100.00;98762.06;4978584;28;20030;-84
2022/09/26 10:19:07;;;;;;;4.80;2.10;;;;;;;9.49;100.00;98754.03;4995616;28;20448;-79
2022/09/26 10:21:47;;;;;;;6.32;2.25;;;;;;;9.43;100.00;98748.09;4979369;28;20034;-81
2022/09/26 10:24:32;;;;;;;6.43;2.55;;;;;;;9.47;100.00;98724.50;4997042;28;20030;-83
2022/09/26 10:27:12;;;;;;;4.05;1.60;;;;;;;9.43;100.00;98741.88;4995898;28;20172;-81
2022/09/26 10:29:39;;;;;;;5.97;2.00;;;;;;;9.45;100.00;98724.06;4995238;28;20077;-84
2022/09/26 10:32:05;;;;;;;4.15;1.90;;;;;;;9.45;100.00;98728.72;4995950;28;20034;-80
2022/09/26 10:34:37;;;;;;;4.70;1.65;;;;;;;9.52;100.00;98710.59;4978603;28;20038;-79
2022/09/26 10:37:30;;;;;;;4.10;1.73;;;;;;;9.54;100.00;98721.13;4996284;28;20054;-82
2022/09/26 10:42:45;;;;;;;6.18;1.88;;;;;;;9.60;100.00;98715.03;4976083;28;20136;-83
2022/09/26 10:45:26;;;;;;;6.88;1.90;;;;;;;9.68;100.00;98710.50;4975849;28;20105;-80
2022/09/26 10:47:54;;;;;;;4.07;1.70;;;;;;;9.73;100.00;98712.13;4958923;28;20049;-85
2022/09/26 10:50:26;;;;;;;6.07;2.50;;;;;;;9.84;100.00;98708.44;4960641;28;20098;-84
2022/09/26 10:53:08;;;;;;;5.90;2.38;;;;;;;9.91;100.00;98722.16;4975004;28;20044;-82
2022/09/26 10:55:44;;;;;;;5.15;2.15;;;;;;;9.97;100.00;98700.09;4977594;28;20121;-88
2022/09/26 10:58:17;;;;;;;5.30;2.05;;;;;;;10.04;100.00;98700.97;4946643;28;20066;-84
2022/09/26 11:00:44;;;;;;;6.68;1.65;;;;;;;10.04;99.81;98694.75;4977728;28;20027;-85
2022/09/26 11:03:13;;;;;;;7.07;2.13;;;;;;;10.17;100.00;98707.00;4958248;28;20027;-80
2022/09/26 11:05:58;;;;;;;4.68;2.20;;;;;;;10.29;99.84;98676.13;4958916;28;20062;-85
2022/09/26 11:08:32;;;;;;;4.82;2.00;;;;;;;10.52;99.08;98688.50;4978596;28;20023;-83
2022/09/26 11:11:04;;;;;;;6.35;2.53;;;;;;;10.61;98.56;98669.19;4945318;28;20222;-89
2022/09/26 11:13:38;;;;;;;7.00;2.15;;;;;;;10.70;97.95;98677.06;4946917;28;20033;-82
2022/09/26 11:16:13;;;;;;;4.68;2.45;;;;;;;10.70;96.36;98661.50;4958394;28;20085;-86
2022/09/26 11:18:58;;;;;;;5.15;1.80;;;;;;;10.84;95.46;98669.84;4976603;28;20050;-79
2022/09/26 11:21:51;;;;;;;3.80;1.63;;;;;;;10.88;96.03;98660.94;4975189;28;20094;-81
2022/09/26 11:24:58;;;;;;;5.63;1.65;;;;;;;11.03;95.18;98659.94;4957656;28;20503;-80
2022/09/26 11:27:30;;;;;;;3.95;1.58;;;;;;;11.31;94.08;98651.28;4973970;28;20041;-80
2022/09/26 11:30:09;;;;;;;4.38;1.67;;;;;;;11.22;93.42;98653.50;4974343;28;20058;-82
2022/09/26 11:32:41;;;;;;;5.50;1.80;;;;;;;11.21;92.42;98639.13;4940901;28;20045;-82
2022/09/26 11:35:15;;;;;;;4.95;1.50;;;;;;;11.25;92.45;98637.19;4973934;28;20035;-80
2022/09/26 11:38:04;;;;;;;3.60;1.65;;;;;;;11.23;92.79;98630.56;4973748;28;20481;-79
2022/09/26 11:41:02;;;;;;;6.78;2.00;;;;;;;11.26;92.53;98621.66;4978015;28;20054;-81
2022/09/26 11:43:59;;;;;;;4.70;1.60;;;;;;;11.30;91.62;98617.03;4993394;28;20022;-83
2022/09/26 11:46:52;;;;;;;3.83;1.60;;;;;;;11.38;91.41;98616.69;4975776;28;20029;-80
2022/09/26 11:50:02;;;;;;;3.80;1.30;;;;;;;11.40;90.88;98589.84;4993038;28;20113;-83
2022/09/26 11:52:45;;;;;;;4.20;1.65;;;;;;;11.39;91.08;98601.91;4914521;29;20037;-79
2022/09/26 11:55:53;;;;;;;4.93;2.08;;;;;;;11.49;90.67;98589.53;4914461;29;20106;-80
2022/09/26 11:58:48;;;;;;;6.45;1.60;;;;;;;11.56;90.51;98600.50;4982005;28;20442;-80
2022/09/26 12:01:44;;;;;;;3.45;1.58;;;;;;;11.71;89.40;98593.97;4994037;28;20034;-80
2022/09/26 12:04:20;;;;;;;3.97;1.35;;;;;;;11.85;88.87;98578.91;4993783;28;20106;-82
2022/09/26 12:07:06;;;;;;;4.68;1.60;;;;;;;12.00;88.93;98596.94;4995242;28;20038;-82
2022/09/26 12:10:13;;;;;;;2.83;1.20;;;;;;;11.93;87.59;98586.00;4975338;28;20108;-79
2022/09/26 12:12:48;;;;;;;3.58;1.40;;;;;;;11.90;88.22;98578.56;4991490;28;20081;-83
2022/09/26 12:15:20;;;;;;;3.90;1.58;;;;;;;11.93;88.92;98577.81;4992841;28;20477;-80